sensor_id;sensor_type;location;lat;lon;timestamp;temperature;humidity
52044;DHT22;38053;53.100;6.078;2023-06-22T00:00:55;17.90;99.90
52044;DHT22;38053;53.100;6.078;2023-06-22T00:03:23;17.90;99.90
52044;DHT22;38053;53.100;6.078;2023-06-22T00:05:52;17.90;99.90
52044;DHT22;38053;53.100;6.078;2023-06-22T00:08:19;17.80;99.90
52044;DHT22;38053;53.100;6.078;2023-06-22T00:10:46;17.80;99.90
52044;DHT22;38053;53.100;6.078;2023-06-22T00:13:12;17.80;99.90
52044;DHT22;38053;53.100;6.078;2023-06-22T00:15:40;17.80;99.90
52044;DHT22;38053;53.100;6.078;2023-06-22T00:18:07;17.70;99.90
52044;DHT22;38053;53.100;6.078;2023-06-22T00:20:33;17.70;99.90
52044;DHT22;38053;53.100;6.078;2023-06-22T00:23:04;17.70;99.90
52044;DHT22;38053;53.100;6.078;2023-06-22T00:25:40;17.70;99.90
52044;DHT22;38053;53.100;6.078;2023-06-22T00:28:06;17.70;99.90
52044;DHT22;38053;53.100;6.078;2023-06-22T00:30:33;17.70;99.90
52044;DHT22;38053;53.100;6.078;2023-06-22T00:33:00;17.60;99.90
52044;DHT22;38053;53.100;6.078;2023-06-22T00:35:26;17.60;99.90
52044;DHT22;38053;53.100;6.078;2023-06-22T00:37:55;17.60;99.90
52044;DHT22;38053;53.100;6.078;2023-06-22T00:40:29;17.50;99.90
52044;DHT22;38053;53.100;6.078;2023-06-22T00:42:55;17.50;99.90
52044;DHT22;38053;53.100;6.078;2023-06-22T00:45:22;17.50;99.90
52044;DHT22;38053;53.100;6.078;2023-06-22T00:47:53;17.50;99.90
52044;DHT22;38053;53.100;6.078;2023-06-22T00:50:24;17.50;99.90
52044;DHT22;38053;53.100;6.078;2023-06-22T00:52:55;17.40;99.90
52044;DHT22;38053;53.100;6.078;2023-06-22T00:55:23;17.40;99.90
52044;DHT22;38053;53.100;6.078;2023-06-22T00:57:49;17.40;99.90
52044;DHT22;38053;53.100;6.078;2023-06-22T01:00:15;17.30;99.90
52044;DHT22;38053;53.100;6.078;2023-06-22T01:02:46;17.30;99.90
52044;DHT22;38053;53.100;6.078;2023-06-22T01:05:18;17.30;99.90
52044;DHT22;38053;53.100;6.078;2023-06-22T01:08:17;17.20;99.90
52044;DHT22;38053;53.100;6.078;2023-06-22T01:14:06;17.20;99.90
52044;DHT22;38053;53.100;6.078;2023-06-22T01:16:37;17.10;99.90
52044;DHT22;38053;53.100;6.078;2023-06-22T01:21:45;17.10;99.90
52044;DHT22;38053;53.100;6.078;2023-06-22T01:24:30;17.10;99.90
52044;DHT22;38053;53.100;6.078;2023-06-22T01:27:09;17.10;99.90
52044;DHT22;38053;53.100;6.078;2023-06-22T01:29:39;17.10;99.90
52044;DHT22;38053;53.100;6.078;2023-06-22T01:32:06;17.10;99.90
52044;DHT22;38053;53.100;6.078;2023-06-22T01:34:33;17.10;99.90
52044;DHT22;38053;53.100;6.078;2023-06-22T01:37:00;17.00;99.90
52044;DHT22;38053;53.100;6.078;2023-06-22T01:39:27;17.00;99.90
52044;DHT22;38053;53.100;6.078;2023-06-22T01:41:54;17.00;99.90
52044;DHT22;38053;53.100;6.078;2023-06-22T01:44:20;17.00;99.90
52044;DHT22;38053;53.100;6.078;2023-06-22T01:46:49;17.00;99.90
52044;DHT22;38053;53.100;6.078;2023-06-22T01:49:15;17.00;99.90
52044;DHT22;38053;53.100;6.078;2023-06-22T01:51:41;17.00;99.90
52044;DHT22;38053;53.100;6.078;2023-06-22T01:54:06;17.00;99.90
52044;DHT22;38053;53.100;6.078;2023-06-22T01:56:33;17.00;99.90
52044;DHT22;38053;53.100;6.078;2023-06-22T01:59:12;17.00;99.90
52044;DHT22;38053;53.100;6.078;2023-06-22T02:02:01;17.00;99.90
52044;DHT22;38053;53.100;6.078;2023-06-22T02:04:34;17.00;99.90
52044;DHT22;38053;53.100;6.078;2023-06-22T02:07:00;17.00;99.90
52044;DHT22;38053;53.100;6.078;2023-06-22T02:09:31;17.00;99.90
52044;DHT22;38053;53.100;6.078;2023-06-22T02:11:58;17.00;99.90
52044;DHT22;38053;53.100;6.078;2023-06-22T02:14:25;17.00;99.90
52044;DHT22;38053;53.100;6.078;2023-06-22T02:16:51;17.00;99.90
52044;DHT22;38053;53.100;6.078;2023-06-22T02:19:23;17.00;99.90
52044;DHT22;38053;53.100;6.078;2023-06-22T02:21:48;16.90;99.90
52044;DHT22;38053;53.100;6.078;2023-06-22T02:24:14;16.90;99.90
52044;DHT22;38053;53.100;6.078;2023-06-22T02:26:40;16.90;99.90
52044;DHT22;38053;53.100;6.078;2023-06-22T02:29:08;16.80;99.90
52044;DHT22;38053;53.100;6.078;2023-06-22T02:31:33;16.80;99.90
52044;DHT22;38053;53.100;6.078;2023-06-22T02:34:00;16.80;99.90
52044;DHT22;38053;53.100;6.078;2023-06-22T02:36:25;16.70;99.90
52044;DHT22;38053;53.100;6.078;2023-06-22T02:38:53;16.70;99.90
52044;DHT22;38053;53.100;6.078;2023-06-22T02:41:19;16.70;99.90
52044;DHT22;38053;53.100;6.078;2023-06-22T02:43:48;16.70;99.90
52044;DHT22;38053;53.100;6.078;2023-06-22T02:46:14;16.70;99.90
52044;DHT22;38053;53.100;6.078;2023-06-22T02:48:41;16.60;99.90
52044;DHT22;38053;53.100;6.078;2023-06-22T02:51:07;16.60;99.90
52044;DHT22;38053;53.100;6.078;2023-06-22T02:53:33;16.50;99.90
52044;DHT22;38053;53.100;6.078;2023-06-22T02:55:58;16.50;99.90
52044;DHT22;38053;53.100;6.078;2023-06-22T02:58:26;16.50;99.90
52044;DHT22;38053;53.100;6.078;2023-06-22T03:00:52;16.50;99.90
52044;DHT22;38053;53.100;6.078;2023-06-22T03:03:20;16.40;99.90
52044;DHT22;38053;53.100;6.078;2023-06-22T03:05:46;16.40;99.90
52044;DHT22;38053;53.100;6.078;2023-06-22T03:08:12;16.40;99.90
52044;DHT22;38053;53.100;6.078;2023-06-22T03:10:37;16.40;99.90
52044;DHT22;38053;53.100;6.078;2023-06-22T03:13:03;16.30;99.90
52044;DHT22;38053;53.100;6.078;2023-06-22T03:15:29;16.30;99.90
52044;DHT22;38053;53.100;6.078;2023-06-22T03:17:56;16.30;99.90
52044;DHT22;38053;53.100;6.078;2023-06-22T03:20:22;16.30;99.90
52044;DHT22;38053;53.100;6.078;2023-06-22T03:22:48;16.30;99.90
52044;DHT22;38053;53.100;6.078;2023-06-22T03:25:14;16.30;99.90
52044;DHT22;38053;53.100;6.078;2023-06-22T03:27:41;16.20;99.90
52044;DHT22;38053;53.100;6.078;2023-06-22T03:30:10;16.20;99.90
52044;DHT22;38053;53.100;6.078;2023-06-22T03:32:36;16.20;99.90
52044;DHT22;38053;53.100;6.078;2023-06-22T03:35:02;16.20;99.90
52044;DHT22;38053;53.100;6.078;2023-06-22T03:37:28;16.20;99.90
52044;DHT22;38053;53.100;6.078;2023-06-22T03:39:54;16.20;99.90
52044;DHT22;38053;53.100;6.078;2023-06-22T03:42:20;16.20;99.90
52044;DHT22;38053;53.100;6.078;2023-06-22T03:44:47;16.20;99.90
52044;DHT22;38053;53.100;6.078;2023-06-22T03:47:13;16.20;99.90
52044;DHT22;38053;53.100;6.078;2023-06-22T03:49:39;16.20;99.90
52044;DHT22;38053;53.100;6.078;2023-06-22T03:52:05;16.20;99.90
52044;DHT22;38053;53.100;6.078;2023-06-22T03:54:31;16.20;99.90
52044;DHT22;38053;53.100;6.078;2023-06-22T03:56:57;16.20;99.90
52044;DHT22;38053;53.100;6.078;2023-06-22T03:59:23;16.20;99.90
52044;DHT22;38053;53.100;6.078;2023-06-22T04:01:49;16.20;99.90
52044;DHT22;38053;53.100;6.078;2023-06-22T04:04:17;16.20;99.90
52044;DHT22;38053;53.100;6.078;2023-06-22T04:06:42;16.20;99.90
52044;DHT22;38053;53.100;6.078;2023-06-22T04:09:08;16.20;99.90
52044;DHT22;38053;53.100;6.078;2023-06-22T04:11:34;16.20;99.90
52044;DHT22;38053;53.100;6.078;2023-06-22T04:13:59;16.30;99.90
52044;DHT22;38053;53.100;6.078;2023-06-22T04:16:25;16.30;99.90
52044;DHT22;38053;53.100;6.078;2023-06-22T04:18:51;16.40;99.90
52044;DHT22;38053;53.100;6.078;2023-06-22T04:21:17;16.40;99.90
52044;DHT22;38053;53.100;6.078;2023-06-22T04:23:45;16.40;99.90
52044;DHT22;38053;53.100;6.078;2023-06-22T04:26:12;16.40;99.90
52044;DHT22;38053;53.100;6.078;2023-06-22T04:28:37;16.40;99.90
52044;DHT22;38053;53.100;6.078;2023-06-22T04:31:03;16.40;99.90
52044;DHT22;38053;53.100;6.078;2023-06-22T04:33:29;16.40;99.90
52044;DHT22;38053;53.100;6.078;2023-06-22T04:35:55;16.40;99.90
52044;DHT22;38053;53.100;6.078;2023-06-22T04:38:24;16.40;99.90
52044;DHT22;38053;53.100;6.078;2023-06-22T04:40:50;16.50;99.90
52044;DHT22;38053;53.100;6.078;2023-06-22T04:43:16;16.50;99.90
52044;DHT22;38053;53.100;6.078;2023-06-22T04:45:42;16.50;99.90
52044;DHT22;38053;53.100;6.078;2023-06-22T04:48:08;16.50;99.90
52044;DHT22;38053;53.100;6.078;2023-06-22T04:50:41;16.50;99.90
52044;DHT22;38053;53.100;6.078;2023-06-22T04:53:07;16.60;99.90
52044;DHT22;38053;53.100;6.078;2023-06-22T04:55:35;16.60;99.90
52044;DHT22;38053;53.100;6.078;2023-06-22T04:58:03;16.60;99.90
52044;DHT22;38053;53.100;6.078;2023-06-22T05:00:30;16.60;99.90
52044;DHT22;38053;53.100;6.078;2023-06-22T05:02:56;16.60;99.90
52044;DHT22;38053;53.100;6.078;2023-06-22T05:05:23;16.60;99.90
52044;DHT22;38053;53.100;6.078;2023-06-22T05:07:51;16.60;99.90
52044;DHT22;38053;53.100;6.078;2023-06-22T05:10:21;16.60;99.90
52044;DHT22;38053;53.100;6.078;2023-06-22T05:12:47;16.70;99.90
52044;DHT22;38053;53.100;6.078;2023-06-22T05:15:12;16.70;99.90
52044;DHT22;38053;53.100;6.078;2023-06-22T05:17:38;16.70;99.90
52044;DHT22;38053;53.100;6.078;2023-06-22T05:20:17;16.80;99.90
52044;DHT22;38053;53.100;6.078;2023-06-22T05:22:43;16.80;99.90
52044;DHT22;38053;53.100;6.078;2023-06-22T05:25:10;16.80;99.90
52044;DHT22;38053;53.100;6.078;2023-06-22T05:27:36;16.90;99.90
52044;DHT22;38053;53.100;6.078;2023-06-22T05:30:06;16.90;99.90
52044;DHT22;38053;53.100;6.078;2023-06-22T05:32:32;17.00;99.90
52044;DHT22;38053;53.100;6.078;2023-06-22T05:34:59;17.00;99.90
52044;DHT22;38053;53.100;6.078;2023-06-22T05:37:25;17.10;99.90
52044;DHT22;38053;53.100;6.078;2023-06-22T05:39:50;17.10;99.90
52044;DHT22;38053;53.100;6.078;2023-06-22T05:42:16;17.20;99.90
52044;DHT22;38053;53.100;6.078;2023-06-22T05:44:42;17.30;99.90
52044;DHT22;38053;53.100;6.078;2023-06-22T05:47:07;17.40;99.90
52044;DHT22;38053;53.100;6.078;2023-06-22T05:49:33;17.40;99.90
52044;DHT22;38053;53.100;6.078;2023-06-22T05:51:59;17.50;99.90
52044;DHT22;38053;53.100;6.078;2023-06-22T05:54:27;17.50;99.90
52044;DHT22;38053;53.100;6.078;2023-06-22T05:56:53;17.60;99.90
52044;DHT22;38053;53.100;6.078;2023-06-22T05:59:19;17.70;99.90
52044;DHT22;38053;53.100;6.078;2023-06-22T06:01:44;17.80;99.90
52044;DHT22;38053;53.100;6.078;2023-06-22T06:04:18;17.90;99.90
52044;DHT22;38053;53.100;6.078;2023-06-22T06:06:44;17.90;99.90
52044;DHT22;38053;53.100;6.078;2023-06-22T06:09:13;18.00;99.90
52044;DHT22;38053;53.100;6.078;2023-06-22T06:11:38;18.10;99.90
52044;DHT22;38053;53.100;6.078;2023-06-22T06:14:04;18.20;99.90
52044;DHT22;38053;53.100;6.078;2023-06-22T06:16:30;18.30;99.90
52044;DHT22;38053;53.100;6.078;2023-06-22T06:18:55;18.30;99.90
52044;DHT22;38053;53.100;6.078;2023-06-22T06:21:22;18.40;99.90
52044;DHT22;38053;53.100;6.078;2023-06-22T06:23:47;18.50;99.90
52044;DHT22;38053;53.100;6.078;2023-06-22T06:26:13;18.50;99.90
52044;DHT22;38053;53.100;6.078;2023-06-22T06:28:42;18.60;99.90
52044;DHT22;38053;53.100;6.078;2023-06-22T06:31:07;18.60;99.90
52044;DHT22;38053;53.100;6.078;2023-06-22T06:33:34;18.70;99.90
52044;DHT22;38053;53.100;6.078;2023-06-22T06:36:00;18.80;99.90
52044;DHT22;38053;53.100;6.078;2023-06-22T06:38:27;18.90;99.90
52044;DHT22;38053;53.100;6.078;2023-06-22T06:40:53;19.00;99.90
52044;DHT22;38053;53.100;6.078;2023-06-22T06:43:19;19.00;99.90
52044;DHT22;38053;53.100;6.078;2023-06-22T06:45:45;19.10;99.90
52044;DHT22;38053;53.100;6.078;2023-06-22T06:48:10;19.20;99.90
52044;DHT22;38053;53.100;6.078;2023-06-22T06:50:36;19.20;99.90
52044;DHT22;38053;53.100;6.078;2023-06-22T06:53:02;19.30;99.90
52044;DHT22;38053;53.100;6.078;2023-06-22T06:55:27;19.40;99.90
52044;DHT22;38053;53.100;6.078;2023-06-22T06:57:55;19.40;99.90
52044;DHT22;38053;53.100;6.078;2023-06-22T07:00:21;19.40;99.90
52044;DHT22;38053;53.100;6.078;2023-06-22T07:02:47;19.50;99.90
52044;DHT22;38053;53.100;6.078;2023-06-22T07:05:13;19.50;99.90
52044;DHT22;38053;53.100;6.078;2023-06-22T07:07:39;19.60;99.90
52044;DHT22;38053;53.100;6.078;2023-06-22T07:10:06;19.60;99.90
52044;DHT22;38053;53.100;6.078;2023-06-22T07:12:31;19.60;99.90
52044;DHT22;38053;53.100;6.078;2023-06-22T07:15:05;19.70;99.90
52044;DHT22;38053;53.100;6.078;2023-06-22T07:17:31;19.80;99.90
52044;DHT22;38053;53.100;6.078;2023-06-22T07:19:57;19.80;99.90
52044;DHT22;38053;53.100;6.078;2023-06-22T07:22:22;19.80;99.90
52044;DHT22;38053;53.100;6.078;2023-06-22T07:24:48;19.90;99.90
52044;DHT22;38053;53.100;6.078;2023-06-22T07:27:15;19.90;99.90
52044;DHT22;38053;53.100;6.078;2023-06-22T07:29:44;20.00;99.90
52044;DHT22;38053;53.100;6.078;2023-06-22T07:32:10;20.00;99.90
52044;DHT22;38053;53.100;6.078;2023-06-22T07:34:36;20.10;99.90
52044;DHT22;38053;53.100;6.078;2023-06-22T07:37:02;20.10;99.90
52044;DHT22;38053;53.100;6.078;2023-06-22T07:39:28;20.20;99.90
52044;DHT22;38053;53.100;6.078;2023-06-22T07:41:53;20.30;99.90
52044;DHT22;38053;53.100;6.078;2023-06-22T07:44:19;20.40;99.90
52044;DHT22;38053;53.100;6.078;2023-06-22T07:46:45;20.50;99.90
52044;DHT22;38053;53.100;6.078;2023-06-22T07:49:11;20.70;99.90
52044;DHT22;38053;53.100;6.078;2023-06-22T07:51:37;20.80;99.90
52044;DHT22;38053;53.100;6.078;2023-06-22T07:54:02;20.90;99.90
52044;DHT22;38053;53.100;6.078;2023-06-22T07:56:28;21.00;99.90
52044;DHT22;38053;53.100;6.078;2023-06-22T07:58:54;21.10;99.90
52044;DHT22;38053;53.100;6.078;2023-06-22T08:01:20;21.20;99.90
52044;DHT22;38053;53.100;6.078;2023-06-22T08:03:49;21.30;99.90
52044;DHT22;38053;53.100;6.078;2023-06-22T08:06:14;21.30;99.90
52044;DHT22;38053;53.100;6.078;2023-06-22T08:08:40;21.40;99.90
52044;DHT22;38053;53.100;6.078;2023-06-22T08:11:08;21.40;99.90
52044;DHT22;38053;53.100;6.078;2023-06-22T08:13:34;21.50;99.90
52044;DHT22;38053;53.100;6.078;2023-06-22T08:15:59;21.60;99.90
52044;DHT22;38053;53.100;6.078;2023-06-22T08:18:25;21.80;99.90
52044;DHT22;38053;53.100;6.078;2023-06-22T08:20:51;21.90;99.90
52044;DHT22;38053;53.100;6.078;2023-06-22T08:23:17;22.00;99.90
52044;DHT22;38053;53.100;6.078;2023-06-22T08:25:43;22.10;99.90
52044;DHT22;38053;53.100;6.078;2023-06-22T08:28:08;22.30;99.90
52044;DHT22;38053;53.100;6.078;2023-06-22T08:30:34;22.50;99.90
52044;DHT22;38053;53.100;6.078;2023-06-22T08:33:00;22.60;99.90
52044;DHT22;38053;53.100;6.078;2023-06-22T08:35:26;22.70;99.90
52044;DHT22;38053;53.100;6.078;2023-06-22T08:37:51;22.80;99.90
52044;DHT22;38053;53.100;6.078;2023-06-22T08:40:20;22.90;99.90
52044;DHT22;38053;53.100;6.078;2023-06-22T08:42:46;23.00;99.90
52044;DHT22;38053;53.100;6.078;2023-06-22T08:45:12;23.10;99.90
52044;DHT22;38053;53.100;6.078;2023-06-22T08:47:40;23.10;99.90
52044;DHT22;38053;53.100;6.078;2023-06-22T08:50:10;23.20;99.90
52044;DHT22;38053;53.100;6.078;2023-06-22T08:52:38;23.30;99.90
52044;DHT22;38053;53.100;6.078;2023-06-22T08:55:05;23.40;99.90
52044;DHT22;38053;53.100;6.078;2023-06-22T08:57:31;23.40;99.90
52044;DHT22;38053;53.100;6.078;2023-06-22T08:59:58;23.50;99.90
52044;DHT22;38053;53.100;6.078;2023-06-22T09:02:27;23.60;99.90
52044;DHT22;38053;53.100;6.078;2023-06-22T09:04:57;23.80;99.90
52044;DHT22;38053;53.100;6.078;2023-06-22T09:07:23;23.90;99.90
52044;DHT22;38053;53.100;6.078;2023-06-22T09:09:50;24.00;99.90
52044;DHT22;38053;53.100;6.078;2023-06-22T09:12:17;24.10;99.90
52044;DHT22;38053;53.100;6.078;2023-06-22T09:14:42;24.20;99.90
52044;DHT22;38053;53.100;6.078;2023-06-22T09:17:08;24.10;99.90
52044;DHT22;38053;53.100;6.078;2023-06-22T09:19:34;24.30;99.90
52044;DHT22;38053;53.100;6.078;2023-06-22T09:22:00;24.50;99.90
52044;DHT22;38053;53.100;6.078;2023-06-22T09:24:25;24.60;99.90
52044;DHT22;38053;53.100;6.078;2023-06-22T09:26:51;24.60;99.90
52044;DHT22;38053;53.100;6.078;2023-06-22T09:29:17;24.70;99.90
52044;DHT22;38053;53.100;6.078;2023-06-22T09:31:43;24.80;99.90
52044;DHT22;38053;53.100;6.078;2023-06-22T09:34:09;24.80;99.90
52044;DHT22;38053;53.100;6.078;2023-06-22T09:36:36;24.80;99.90
52044;DHT22;38053;53.100;6.078;2023-06-22T09:39:05;24.90;99.90
52044;DHT22;38053;53.100;6.078;2023-06-22T09:41:32;25.00;99.90
52044;DHT22;38053;53.100;6.078;2023-06-22T09:43:57;25.00;99.90
52044;DHT22;38053;53.100;6.078;2023-06-22T09:46:23;25.10;99.90
52044;DHT22;38053;53.100;6.078;2023-06-22T09:48:53;25.30;99.90
52044;DHT22;38053;53.100;6.078;2023-06-22T09:51:19;25.50;99.90
52044;DHT22;38053;53.100;6.078;2023-06-22T09:53:47;25.70;99.90
52044;DHT22;38053;53.100;6.078;2023-06-22T09:56:13;25.80;99.90
52044;DHT22;38053;53.100;6.078;2023-06-22T09:58:44;25.80;99.90
52044;DHT22;38053;53.100;6.078;2023-06-22T10:01:10;25.90;99.90
52044;DHT22;38053;53.100;6.078;2023-06-22T10:03:36;25.80;99.90
52044;DHT22;38053;53.100;6.078;2023-06-22T10:06:02;25.60;99.90
52044;DHT22;38053;53.100;6.078;2023-06-22T10:08:28;25.70;99.90
52044;DHT22;38053;53.100;6.078;2023-06-22T10:10:54;25.70;99.90
52044;DHT22;38053;53.100;6.078;2023-06-22T10:13:20;26.00;99.90
52044;DHT22;38053;53.100;6.078;2023-06-22T10:15:46;26.20;99.90
52044;DHT22;38053;53.100;6.078;2023-06-22T10:18:16;26.10;99.90
52044;DHT22;38053;53.100;6.078;2023-06-22T10:20:42;26.20;99.90
52044;DHT22;38053;53.100;6.078;2023-06-22T10:23:08;26.30;99.90
52044;DHT22;38053;53.100;6.078;2023-06-22T10:25:34;26.50;99.90
52044;DHT22;38053;53.100;6.078;2023-06-22T10:28:00;26.70;99.90
52044;DHT22;38053;53.100;6.078;2023-06-22T10:30:25;27.00;99.90
52044;DHT22;38053;53.100;6.078;2023-06-22T10:32:51;27.10;99.90
52044;DHT22;38053;53.100;6.078;2023-06-22T10:35:17;27.10;99.90
52044;DHT22;38053;53.100;6.078;2023-06-22T10:37:44;27.30;99.90
52044;DHT22;38053;53.100;6.078;2023-06-22T10:40:11;27.30;99.90
52044;DHT22;38053;53.100;6.078;2023-06-22T10:42:37;27.30;99.90
52044;DHT22;38053;53.100;6.078;2023-06-22T10:45:03;27.30;99.90
52044;DHT22;38053;53.100;6.078;2023-06-22T10:47:29;27.40;99.90
52044;DHT22;38053;53.100;6.078;2023-06-22T10:49:55;27.70;99.90
52044;DHT22;38053;53.100;6.078;2023-06-22T10:52:20;27.80;99.90
52044;DHT22;38053;53.100;6.078;2023-06-22T10:54:46;27.90;99.90
52044;DHT22;38053;53.100;6.078;2023-06-22T10:57:12;27.70;99.90
52044;DHT22;38053;53.100;6.078;2023-06-22T10:59:37;27.70;99.90
52044;DHT22;38053;53.100;6.078;2023-06-22T11:02:03;27.80;99.90
52044;DHT22;38053;53.100;6.078;2023-06-22T11:04:29;27.70;99.90
52044;DHT22;38053;53.100;6.078;2023-06-22T11:06:55;27.90;99.90
52044;DHT22;38053;53.100;6.078;2023-06-22T11:09:21;28.00;99.90
52044;DHT22;38053;53.100;6.078;2023-06-22T11:11:49;28.00;99.90
52044;DHT22;38053;53.100;6.078;2023-06-22T11:14:15;27.90;99.90
52044;DHT22;38053;53.100;6.078;2023-06-22T11:16:41;27.90;99.90
52044;DHT22;38053;53.100;6.078;2023-06-22T11:19:07;27.90;99.90
52044;DHT22;38053;53.100;6.078;2023-06-22T11:21:33;27.80;99.30
52044;DHT22;38053;53.100;6.078;2023-06-22T11:24:00;27.90;99.90
52044;DHT22;38053;53.100;6.078;2023-06-22T11:26:26;28.00;99.90
52044;DHT22;38053;53.100;6.078;2023-06-22T11:28:55;28.00;99.90
52044;DHT22;38053;53.100;6.078;2023-06-22T11:31:21;28.00;99.90
52044;DHT22;38053;53.100;6.078;2023-06-22T11:33:46;28.00;99.90
52044;DHT22;38053;53.100;6.078;2023-06-22T11:36:13;27.90;99.60
52044;DHT22;38053;53.100;6.078;2023-06-22T11:38:40;28.10;99.90
52044;DHT22;38053;53.100;6.078;2023-06-22T11:41:06;28.00;99.80
52044;DHT22;38053;53.100;6.078;2023-06-22T11:43:33;27.90;99.40
52044;DHT22;38053;53.100;6.078;2023-06-22T11:45:59;27.90;99.60
52044;DHT22;38053;53.100;6.078;2023-06-22T11:48:26;27.80;99.60
52044;DHT22;38053;53.100;6.078;2023-06-22T11:50:52;27.80;99.30
52044;DHT22;38053;53.100;6.078;2023-06-22T11:53:18;27.60;99.10
52044;DHT22;38053;53.100;6.078;2023-06-22T11:55:46;27.60;99.70
52044;DHT22;38053;53.100;6.078;2023-06-22T11:58:12;27.50;99.80
52044;DHT22;38053;53.100;6.078;2023-06-22T12:00:38;27.40;99.90
52044;DHT22;38053;53.100;6.078;2023-06-22T12:03:04;27.30;99.90
52044;DHT22;38053;53.100;6.078;2023-06-22T12:05:30;27.20;99.20
52044;DHT22;38053;53.100;6.078;2023-06-22T12:07:55;27.30;99.40
52044;DHT22;38053;53.100;6.078;2023-06-22T12:10:22;27.40;99.10
52044;DHT22;38053;53.100;6.078;2023-06-22T12:12:48;27.30;99.50
52044;DHT22;38053;53.100;6.078;2023-06-22T12:15:14;27.40;99.30
52044;DHT22;38053;53.100;6.078;2023-06-22T12:17:40;27.40;99.20
52044;DHT22;38053;53.100;6.078;2023-06-22T12:20:07;27.40;99.20
52044;DHT22;38053;53.100;6.078;2023-06-22T12:22:34;27.30;99.00
52044;DHT22;38053;53.100;6.078;2023-06-22T12:25:00;27.10;98.70
52044;DHT22;38053;53.100;6.078;2023-06-22T12:27:26;27.10;98.90
52044;DHT22;38053;53.100;6.078;2023-06-22T12:29:52;27.10;99.20
52044;DHT22;38053;53.100;6.078;2023-06-22T12:32:18;27.10;99.10
52044;DHT22;38053;53.100;6.078;2023-06-22T12:34:44;27.00;99.80
52044;DHT22;38053;53.100;6.078;2023-06-22T12:37:10;26.80;99.90
52044;DHT22;38053;53.100;6.078;2023-06-22T12:39:36;26.70;99.90
52044;DHT22;38053;53.100;6.078;2023-06-22T12:42:02;26.50;99.90
52044;DHT22;38053;53.100;6.078;2023-06-22T12:44:28;26.50;99.90
52044;DHT22;38053;53.100;6.078;2023-06-22T12:46:54;26.50;99.90
52044;DHT22;38053;53.100;6.078;2023-06-22T12:49:19;26.50;99.90
52044;DHT22;38053;53.100;6.078;2023-06-22T12:51:45;26.40;99.90
52044;DHT22;38053;53.100;6.078;2023-06-22T12:54:11;26.20;99.90
52044;DHT22;38053;53.100;6.078;2023-06-22T12:56:38;26.20;99.90
52044;DHT22;38053;53.100;6.078;2023-06-22T12:59:04;26.20;99.90
52044;DHT22;38053;53.100;6.078;2023-06-22T13:01:31;26.40;99.90
52044;DHT22;38053;53.100;6.078;2023-06-22T13:03:58;26.40;99.90
52044;DHT22;38053;53.100;6.078;2023-06-22T13:06:24;26.50;99.90
52044;DHT22;38053;53.100;6.078;2023-06-22T13:08:49;26.40;99.90
52044;DHT22;38053;53.100;6.078;2023-06-22T13:11:15;26.40;99.90
52044;DHT22;38053;53.100;6.078;2023-06-22T13:13:41;26.30;99.90
52044;DHT22;38053;53.100;6.078;2023-06-22T13:16:07;26.40;99.90
52044;DHT22;38053;53.100;6.078;2023-06-22T13:18:33;26.40;99.90
52044;DHT22;38053;53.100;6.078;2023-06-22T13:21:01;26.50;99.90
52044;DHT22;38053;53.100;6.078;2023-06-22T13:23:27;26.40;99.90
52044;DHT22;38053;53.100;6.078;2023-06-22T13:25:53;26.30;99.90
52044;DHT22;38053;53.100;6.078;2023-06-22T13:28:18;26.20;99.90
52044;DHT22;38053;53.100;6.078;2023-06-22T13:30:46;26.10;99.90
52044;DHT22;38053;53.100;6.078;2023-06-22T13:33:16;26.10;99.90
52044;DHT22;38053;53.100;6.078;2023-06-22T13:35:42;25.90;99.90
52044;DHT22;38053;53.100;6.078;2023-06-22T13:38:08;25.80;99.90
52044;DHT22;38053;53.100;6.078;2023-06-22T13:40:35;25.80;99.90
52044;DHT22;38053;53.100;6.078;2023-06-22T13:43:01;25.60;99.90
52044;DHT22;38053;53.100;6.078;2023-06-22T13:45:26;25.50;99.90
52044;DHT22;38053;53.100;6.078;2023-06-22T13:47:52;25.40;99.90
52044;DHT22;38053;53.100;6.078;2023-06-22T13:50:18;25.40;99.90
52044;DHT22;38053;53.100;6.078;2023-06-22T13:52:44;25.10;99.90
52044;DHT22;38053;53.100;6.078;2023-06-22T13:55:10;25.10;99.90
52044;DHT22;38053;53.100;6.078;2023-06-22T13:57:36;24.90;99.90
52044;DHT22;38053;53.100;6.078;2023-06-22T14:00:04;24.80;99.90
52044;DHT22;38053;53.100;6.078;2023-06-22T14:02:34;24.70;99.90
52044;DHT22;38053;53.100;6.078;2023-06-22T14:04:59;24.70;99.90
52044;DHT22;38053;53.100;6.078;2023-06-22T14:07:25;24.50;99.90
52044;DHT22;38053;53.100;6.078;2023-06-22T14:09:51;24.30;99.90
52044;DHT22;38053;53.100;6.078;2023-06-22T14:12:17;24.30;99.90
52044;DHT22;38053;53.100;6.078;2023-06-22T14:14:49;24.30;99.90
52044;DHT22;38053;53.100;6.078;2023-06-22T14:17:17;24.30;99.90
52044;DHT22;38053;53.100;6.078;2023-06-22T14:19:49;24.20;99.90
52044;DHT22;38053;53.100;6.078;2023-06-22T14:22:15;24.10;99.90
52044;DHT22;38053;53.100;6.078;2023-06-22T14:24:45;24.10;99.90
52044;DHT22;38053;53.100;6.078;2023-06-22T14:27:11;24.10;99.90
52044;DHT22;38053;53.100;6.078;2023-06-22T14:29:36;24.10;99.90
52044;DHT22;38053;53.100;6.078;2023-06-22T14:32:02;24.00;99.90
52044;DHT22;38053;53.100;6.078;2023-06-22T14:34:28;23.90;99.90
52044;DHT22;38053;53.100;6.078;2023-06-22T14:36:54;23.90;99.90
52044;DHT22;38053;53.100;6.078;2023-06-22T14:39:19;23.80;99.90
52044;DHT22;38053;53.100;6.078;2023-06-22T14:41:46;23.80;99.90
52044;DHT22;38053;53.100;6.078;2023-06-22T14:44:12;23.80;99.90
52044;DHT22;38053;53.100;6.078;2023-06-22T14:46:37;23.70;99.90
52044;DHT22;38053;53.100;6.078;2023-06-22T14:49:03;23.70;99.90
52044;DHT22;38053;53.100;6.078;2023-06-22T14:51:29;23.70;99.90
52044;DHT22;38053;53.100;6.078;2023-06-22T14:53:55;23.70;99.90
52044;DHT22;38053;53.100;6.078;2023-06-22T14:56:20;23.60;99.90
52044;DHT22;38053;53.100;6.078;2023-06-22T14:58:46;23.80;99.90
52044;DHT22;38053;53.100;6.078;2023-06-22T15:01:12;23.80;99.90
52044;DHT22;38053;53.100;6.078;2023-06-22T15:03:38;23.80;99.90
52044;DHT22;38053;53.100;6.078;2023-06-22T15:06:04;23.90;99.90
52044;DHT22;38053;53.100;6.078;2023-06-22T15:08:30;23.60;99.90
52044;DHT22;38053;53.100;6.078;2023-06-22T15:10:59;23.50;99.90
52044;DHT22;38053;53.100;6.078;2023-06-22T15:13:30;23.30;99.90
52044;DHT22;38053;53.100;6.078;2023-06-22T15:15:58;23.40;99.90
52044;DHT22;38053;53.100;6.078;2023-06-22T15:18:23;23.30;99.90
52044;DHT22;38053;53.100;6.078;2023-06-22T15:20:49;23.10;99.90
52044;DHT22;38053;53.100;6.078;2023-06-22T15:23:15;23.10;99.90
52044;DHT22;38053;53.100;6.078;2023-06-22T15:25:40;23.20;99.90
52044;DHT22;38053;53.100;6.078;2023-06-22T15:28:10;23.30;99.90
52044;DHT22;38053;53.100;6.078;2023-06-22T15:30:36;23.30;99.90
52044;DHT22;38053;53.100;6.078;2023-06-22T15:33:02;23.20;99.90